Time;durP1;ratioP1;P1;durP2;ratioP2;P2;SDS_P1;SDS_P2;PMS_P1;PMS_P2;Temp;Humidity;BMP_temperature;BMP_pressure;BME280_temperature;BME280_humidity;BME280_pressure;Samples;Min_cycle;Max_cycle;Signal;HPM_P1;HPM_P2
2023/05/29 00:00:32;;;;;;;14.43;3.37;;;11.70;99.90;;;;;;5013801;28;20207;-82
2023/05/29 00:03:01;;;;;;;10.53;3.37;;;11.60;99.90;;;;;;5014124;28;20261;-81
2023/05/29 00:05:28;;;;;;;13.53;3.07;;;11.70;99.90;;;;;;5014042;28;20214;-80
2023/05/29 00:07:55;;;;;;;16.00;3.10;;;11.60;99.90;;;;;;5013578;28;20330;-81
2023/05/29 00:10:22;;;;;;;16.47;3.87;;;11.60;99.90;;;;;;5014515;28;20203;-81
2023/05/29 00:12:50;;;;;;;13.90;2.87;;;11.50;99.90;;;;;;5013702;28;20278;-80
2023/05/29 00:15:17;;;;;;;15.23;3.03;;;11.50;99.90;;;;;;5013529;28;20512;-80
2023/05/29 00:17:44;;;;;;;19.33;4.00;;;11.50;99.90;;;;;;5014380;28;20239;-80
2023/05/29 00:20:12;;;;;;;11.00;3.53;;;11.50;99.90;;;;;;5013839;28;20298;-81
2023/05/29 00:22:40;;;;;;;15.83;3.97;;;11.40;99.90;;;;;;5020231;28;20205;-78
2023/05/29 00:25:08;;;;;;;14.00;3.63;;;11.40;99.90;;;;;;5033629;28;20568;-80
2023/05/29 00:27:36;;;;;;;9.67;2.73;;;11.40;99.90;;;;;;5033244;28;20211;-80
2023/05/29 00:30:05;;;;;;;16.13;3.10;;;11.40;99.90;;;;;;5018715;28;20223;-79
2023/05/29 00:32:32;;;;;;;15.70;4.00;;;11.40;99.90;;;;;;5013555;28;20197;-79
2023/05/29 00:34:59;;;;;;;9.40;2.90;;;11.40;99.90;;;;;;5013282;28;20198;-80
2023/05/29 00:37:26;;;;;;;16.60;3.10;;;11.40;99.90;;;;;;5027974;28;20214;-80
2023/05/29 00:39:53;;;;;;;16.77;3.67;;;11.40;99.90;;;;;;5033548;28;20199;-81
2023/05/29 00:42:20;;;;;;;14.63;3.20;;;11.30;99.90;;;;;;5016948;28;20294;-81
2023/05/29 00:44:47;;;;;;;11.23;3.43;;;11.30;99.90;;;;;;5013575;28;20282;-80
2023/05/29 00:47:15;;;;;;;12.07;2.83;;;11.30;99.90;;;;;;5013171;28;20596;-79
2023/05/29 00:49:42;;;;;;;11.27;3.03;;;11.30;99.90;;;;;;5012829;28;20239;-82
2023/05/29 00:52:11;;;;;;;8.13;3.00;;;11.20;99.90;;;;;;5013774;28;20203;-80
2023/05/29 00:54:38;;;;;;;11.30;3.23;;;11.30;99.90;;;;;;5013401;28;20211;-79
2023/05/29 00:57:06;;;;;;;19.50;3.17;;;11.30;99.90;;;;;;5012835;28;20223;-80
2023/05/29 00:59:34;;;;;;;10.17;2.70;;;11.20;99.90;;;;;;5012894;28;20191;-80
2023/05/29 01:02:02;;;;;;;9.53;2.80;;;11.20;99.90;;;;;;5013258;28;20523;-79
2023/05/29 01:04:33;;;;;;;16.60;3.37;;;11.10;99.90;;;;;;5012066;28;20203;-80
2023/05/29 01:07:02;;;;;;;17.80;3.33;;;11.10;99.90;;;;;;5013153;28;20199;-81
2023/05/29 01:09:30;;;;;;;16.13;4.00;;;11.10;99.90;;;;;;5012722;28;20673;-80
2023/05/29 01:12:04;;;;;;;14.37;3.43;;;11.00;99.90;;;;;;5012409;28;20195;-81
2023/05/29 01:14:39;;;;;;;15.40;3.47;;;11.00;99.90;;;;;;5013276;28;20671;-80
2023/05/29 01:17:12;;;;;;;7.53;2.67;;;11.00;99.90;;;;;;5012754;28;20222;-79
2023/05/29 01:22:48;;;;;;;12.50;3.20;;;11.00;99.90;;;;;;5091514;27;21090;-81
2023/05/29 01:25:22;;;;;;;13.50;4.23;;;10.90;99.90;;;;;;5089255;28;20207;-83
2023/05/29 01:27:51;;;;;;;15.40;3.33;;;10.90;99.90;;;;;;5089957;28;20229;-81
2023/05/29 01:30:21;;;;;;;10.77;3.10;;;10.80;99.90;;;;;;5092532;28;20199;-81
2023/05/29 01:32:48;;;;;;;12.40;2.77;;;10.80;99.90;;;;;;5109253;28;20264;-81
2023/05/29 01:35:15;;;;;;;10.70;2.83;;;10.70;99.90;;;;;;5096434;28;20208;-80
2023/05/29 01:37:42;;;;;;;14.00;3.40;;;10.70;99.90;;;;;;5089718;28;20300;-82
2023/05/29 01:40:10;;;;;;;12.10;2.80;;;10.70;99.90;;;;;;5089046;28;20215;-80
2023/05/29 01:42:37;;;;;;;15.43;3.10;;;10.70;99.90;;;;;;5089545;28;20197;-80
2023/05/29 01:45:08;;;;;;;16.03;3.23;;;10.70;99.90;;;;;;5089661;28;20208;-81
2023/05/29 01:47:36;;;;;;;15.43;3.40;;;10.70;99.90;;;;;;5089556;28;20209;-83
2023/05/29 01:50:05;;;;;;;14.27;3.10;;;10.70;99.90;;;;;;5090076;28;20232;-81
2023/05/29 01:52:32;;;;;;;11.03;3.13;;;10.60;99.90;;;;;;5088925;28;20201;-82
2023/05/29 01:54:59;;;;;;;10.37;2.57;;;10.60;99.90;;;;;;5088951;28;20193;-80
2023/05/29 01:57:27;;;;;;;10.10;3.20;;;10.60;99.90;;;;;;5089563;28;20232;-81
2023/05/29 01:59:55;;;;;;;17.47;3.00;;;10.60;99.90;;;;;;5094895;28;20620;-81
2023/05/29 02:02:24;;;;;;;13.53;2.90;;;10.60;99.90;;;;;;5109675;28;20231;-82
2023/05/29 02:04:51;;;;;;;10.17;3.13;;;10.60;99.90;;;;;;5096281;28;20264;-81
2023/05/29 02:07:19;;;;;;;12.00;3.33;;;10.50;99.90;;;;;;5088827;28;20205;-82
2023/05/29 02:09:46;;;;;;;13.90;2.93;;;10.50;99.90;;;;;;5089169;28;20197;-82
2023/05/29 02:12:13;;;;;;;14.63;3.10;;;10.50;99.90;;;;;;5089024;28;20687;-81
2023/05/29 02:14:40;;;;;;;13.03;2.73;;;10.50;99.90;;;;;;5088239;28;20664;-81
2023/05/29 02:17:07;;;;;;;11.83;2.87;;;10.50;99.90;;;;;;5088992;28;20208;-80
2023/05/29 02:19:36;;;;;;;13.87;2.97;;;10.50;99.90;;;;;;5088498;28;20224;-81
2023/05/29 02:22:03;;;;;;;11.20;2.40;;;10.50;99.90;;;;;;5087631;28;20264;-80
2023/05/29 02:24:30;;;;;;;14.70;3.27;;;10.40;99.90;;;;;;5088768;28;20205;-80
2023/05/29 02:26:57;;;;;;;16.03;3.43;;;10.40;99.90;;;;;;5088634;28;20224;-83
2023/05/29 02:29:24;;;;;;;18.47;3.53;;;10.40;99.90;;;;;;5108535;28;20222;-81
2023/05/29 02:31:51;;;;;;;11.27;2.40;;;10.40;99.90;;;;;;5107695;28;20705;-81
2023/05/29 02:34:18;;;;;;;11.80;3.03;;;10.40;99.90;;;;;;5095095;28;20228;-80
2023/05/29 02:36:46;;;;;;;11.10;2.50;;;10.40;99.90;;;;;;5081474;28;20295;-81
2023/05/29 02:39:13;;;;;;;13.03;2.63;;;10.30;99.90;;;;;;5074906;28;20612;-81
2023/05/29 02:41:40;;;;;;;10.57;2.50;;;10.30;99.90;;;;;;5074822;28;20562;-82
2023/05/29 02:44:07;;;;;;;9.73;2.47;;;10.30;99.90;;;;;;5074652;28;20197;-83
2023/05/29 02:46:34;;;;;;;13.63;4.47;;;10.30;99.90;;;;;;5075267;28;20197;-83
2023/05/29 02:49:01;;;;;;;8.73;3.07;;;10.30;99.90;;;;;;5074287;28;20255;-82
2023/05/29 02:51:28;;;;;;;12.57;2.50;;;10.30;99.90;;;;;;5074250;28;20204;-82
2023/05/29 02:53:57;;;;;;;14.67;3.00;;;10.30;99.90;;;;;;5075260;28;20201;-82
2023/05/29 02:56:24;;;;;;;16.77;2.80;;;10.30;99.90;;;;;;5074457;28;20205;-83
2023/05/29 02:58:50;;;;;;;9.57;2.27;;;10.20;99.90;;;;;;5090725;28;20196;-82
2023/05/29 03:01:17;;;;;;;13.47;2.87;;;10.20;99.90;;;;;;5094829;28;20519;-82
2023/05/29 03:03:44;;;;;;;11.23;2.30;;;10.20;99.90;;;;;;5094390;28;20287;-81
2023/05/29 03:06:12;;;;;;;11.37;2.60;;;10.20;99.90;;;;;;5088799;28;20289;-82
2023/05/29 03:08:39;;;;;;;8.87;2.40;;;10.20;99.90;;;;;;5074629;28;20190;-82
2023/05/29 03:11:08;;;;;;;13.57;2.80;;;10.10;99.90;;;;;;5074621;28;20202;-83
2023/05/29 03:13:36;;;;;;;14.90;3.10;;;10.10;99.90;;;;;;5074992;28;20203;-82
2023/05/29 03:16:03;;;;;;;11.27;2.70;;;10.10;99.90;;;;;;5074406;28;20204;-82
2023/05/29 03:18:30;;;;;;;12.50;3.00;;;10.10;99.90;;;;;;5088704;28;20212;-82
2023/05/29 03:20:57;;;;;;;12.40;2.57;;;10.10;99.90;;;;;;5095076;28;20232;-83
2023/05/29 03:23:24;;;;;;;15.93;2.77;;;10.20;99.90;;;;;;5094167;28;20210;-83
2023/05/29 03:25:51;;;;;;;12.73;2.80;;;10.10;99.90;;;;;;5095115;28;20279;-82
2023/05/29 03:28:19;;;;;;;10.90;2.17;;;10.20;99.90;;;;;;5091500;28;20220;-84
2023/05/29 03:30:46;;;;;;;9.50;2.80;;;10.20;99.90;;;;;;5073728;28;20276;-81
2023/05/29 03:33:13;;;;;;;16.33;2.67;;;10.10;99.90;;;;;;5074067;28;20197;-81
2023/05/29 03:35:40;;;;;;;12.47;3.43;;;10.20;99.90;;;;;;5074355;28;20211;-82
2023/05/29 03:38:07;;;;;;;12.93;3.03;;;10.20;99.90;;;;;;5074344;28;20193;-83
2023/05/29 03:40:34;;;;;;;11.97;2.73;;;10.10;99.90;;;;;;5074403;28;20221;-85
2023/05/29 03:43:00;;;;;;;14.17;3.40;;;10.10;99.90;;;;;;5074350;28;20312;-83
2023/05/29 03:45:29;;;;;;;14.77;2.53;;;10.10;99.90;;;;;;5072480;28;20232;-84
2023/05/29 03:47:56;;;;;;;11.07;2.73;;;10.10;99.90;;;;;;5074252;28;20565;-81
2023/05/29 03:50:23;;;;;;;12.83;3.23;;;10.10;99.90;;;;;;5074604;28;20291;-81
2023/05/29 03:52:50;;;;;;;12.80;2.80;;;10.10;99.90;;;;;;5074473;28;20189;-81
2023/05/29 03:55:17;;;;;;;8.30;2.63;;;10.10;99.90;;;;;;5074490;28;20210;-81
2023/05/29 03:57:44;;;;;;;9.97;3.17;;;10.10;99.90;;;;;;5074249;28;20192;-81
2023/05/29 04:00:13;;;;;;;16.97;3.17;;;10.10;99.90;;;;;;5073820;28;20189;-81
2023/05/29 04:02:42;;;;;;;11.97;2.60;;;10.10;99.90;;;;;;5091128;28;20251;-80
2023/05/29 04:05:09;;;;;;;10.57;2.47;;;10.10;99.90;;;;;;5094123;28;20605;-81
2023/05/29 04:07:38;;;;;;;11.93;2.77;;;10.10;99.90;;;;;;5090091;28;20207;-82
2023/05/29 04:10:06;;;;;;;13.63;4.30;;;10.10;99.90;;;;;;5073418;28;20200;-80
2023/05/29 04:12:33;;;;;;;9.47;3.10;;;10.10;99.90;;;;;;5073409;28;20216;-80
2023/05/29 04:15:00;;;;;;;12.87;3.57;;;10.10;99.90;;;;;;5073315;28;20208;-81
2023/05/29 04:17:27;;;;;;;12.13;2.83;;;10.20;99.90;;;;;;5073425;28;20209;-81
2023/05/29 04:19:56;;;;;;;15.90;3.43;;;10.20;99.90;;;;;;5072930;28;20246;-81
2023/05/29 04:22:23;;;;;;;11.17;2.33;;;10.20;99.90;;;;;;5073208;28;20312;-83
2023/05/29 04:24:50;;;;;;;10.87;2.53;;;10.20;99.90;;;;;;5073667;28;20207;-82
2023/05/29 04:27:17;;;;;;;9.67;2.47;;;10.30;99.90;;;;;;5072721;28;20232;-82
2023/05/29 04:29:44;;;;;;;13.47;3.27;;;10.40;99.90;;;;;;5073089;28;20232;-81
2023/05/29 04:32:13;;;;;;;11.87;2.80;;;10.40;99.90;;;;;;5082857;28;20196;-81
2023/05/29 04:34:40;;;;;;;8.90;2.60;;;10.50;99.90;;;;;;5092443;28;20658;-82
2023/05/29 04:37:08;;;;;;;12.60;2.73;;;10.50;99.90;;;;;;5094067;28;20271;-81
2023/05/29 04:39:35;;;;;;;8.50;2.40;;;10.50;99.90;;;;;;5093865;28;20664;-81
2023/05/29 04:42:02;;;;;;;13.77;3.33;;;10.60;99.90;;;;;;5093481;28;20318;-83
2023/05/29 04:44:30;;;;;;;10.80;2.67;;;10.50;99.90;;;;;;5082203;28;20211;-81
2023/05/29 04:46:57;;;;;;;12.93;2.77;;;10.60;99.90;;;;;;5073592;28;20201;-82
2023/05/29 04:49:24;;;;;;;14.60;3.73;;;10.60;99.90;;;;;;5073165;28;20204;-83
2023/05/29 04:51:53;;;;;;;8.93;2.90;;;10.60;99.90;;;;;;5073830;28;20197;-81
2023/05/29 04:54:23;;;;;;;10.80;3.00;;;10.60;99.90;;;;;;5073556;28;20585;-81
2023/05/29 04:56:49;;;;;;;11.73;2.73;;;10.60;99.90;;;;;;5073195;28;20477;-82
2023/05/29 04:59:16;;;;;;;9.87;2.73;;;10.60;99.90;;;;;;5073487;28;20233;-83
2023/05/29 05:01:44;;;;;;;14.53;3.67;;;10.70;99.90;;;;;;5073411;28;20643;-81
2023/05/29 05:04:11;;;;;;;15.43;3.83;;;10.80;99.90;;;;;;5073277;28;20193;-82
2023/05/29 05:06:39;;;;;;;13.33;3.00;;;10.90;99.90;;;;;;5073161;28;20620;-81
2023/05/29 05:09:06;;;;;;;10.27;2.83;;;11.10;99.90;;;;;;5073223;28;20212;-81
2023/05/29 05:11:34;;;;;;;12.43;2.70;;;11.20;99.90;;;;;;5073463;28;20228;-81
2023/05/29 05:14:01;;;;;;;5.97;2.30;;;11.40;99.90;;;;;;5073502;28;20205;-81
2023/05/29 05:16:28;;;;;;;10.17;2.70;;;11.50;99.90;;;;;;5072620;28;20197;-81
2023/05/29 05:18:55;;;;;;;9.63;3.17;;;11.70;99.90;;;;;;5087485;28;20292;-82
2023/05/29 05:21:22;;;;;;;8.50;2.57;;;11.80;99.90;;;;;;5093479;28;20220;-81
2023/05/29 05:23:49;;;;;;;7.87;2.20;;;12.00;99.90;;;;;;5093371;28;20296;-82
2023/05/29 05:26:16;;;;;;;9.73;3.17;;;12.10;99.90;;;;;;5092572;28;20202;-81
2023/05/29 05:28:44;;;;;;;9.50;2.40;;;12.30;99.90;;;;;;5074508;28;20240;-83
2023/05/29 05:31:11;;;;;;;11.87;2.80;;;12.60;99.90;;;;;;5073085;28;20197;-82
2023/05/29 05:33:38;;;;;;;11.03;2.50;;;12.70;99.90;;;;;;5073166;28;21088;-84
2023/05/29 05:36:06;;;;;;;11.33;2.63;;;12.90;99.90;;;;;;5073694;28;20220;-81
2023/05/29 05:38:33;;;;;;;11.43;3.23;;;13.10;99.90;;;;;;5072588;28;20213;-83
2023/05/29 05:41:00;;;;;;;10.80;2.83;;;13.30;99.90;;;;;;5073149;28;20267;-81
2023/05/29 05:43:28;;;;;;;12.40;3.20;;;13.40;99.90;;;;;;5072925;28;20320;-81
2023/05/29 05:45:57;;;;;;;12.87;3.13;;;13.40;99.90;;;;;;5072435;28;20545;-82
2023/05/29 05:48:24;;;;;;;11.90;2.83;;;13.40;99.90;;;;;;5073086;28;20248;-82
2023/05/29 05:50:52;;;;;;;9.43;3.27;;;13.20;99.90;;;;;;5073580;28;20209;-82
2023/05/29 05:53:20;;;;;;;10.83;3.70;;;13.30;99.90;;;;;;5071650;28;20205;-81
2023/05/29 05:55:47;;;;;;;8.77;2.90;;;13.40;99.90;;;;;;5072986;28;20224;-82
2023/05/29 05:58:14;;;;;;;11.63;3.03;;;13.60;99.90;;;;;;5073323;28;20739;-81
2023/05/29 06:00:42;;;;;;;13.13;2.87;;;13.80;99.90;;;;;;5072360;28;20242;-80
2023/05/29 06:03:10;;;;;;;10.80;3.03;;;14.00;99.90;;;;;;5072381;28;20232;-81
2023/05/29 06:05:40;;;;;;;7.87;2.07;;;14.20;99.90;;;;;;5071980;28;20316;-81
2023/05/29 06:08:08;;;;;;;8.07;2.70;;;14.40;99.90;;;;;;5073774;28;20204;-80
2023/05/29 06:10:35;;;;;;;11.27;2.73;;;14.60;99.90;;;;;;5075447;28;20555;-82
2023/05/29 06:13:01;;;;;;;10.67;2.80;;;14.60;99.90;;;;;;5074869;28;20208;-80
2023/05/29 06:15:28;;;;;;;13.27;2.87;;;14.70;99.90;;;;;;5075792;28;20197;-81
2023/05/29 06:17:55;;;;;;;13.43;2.83;;;14.90;99.90;;;;;;5084164;28;20214;-83
2023/05/29 06:20:23;;;;;;;11.10;2.88;;;15.10;99.90;;;;;;5095626;28;20288;-84
2023/05/29 06:26:13;;;;;;;7.85;2.75;;;15.40;99.90;;;;;;5073729;28;20187;-84
2023/05/29 06:28:40;;;;;;;10.70;2.92;;;15.60;99.90;;;;;;5089559;28;20498;-83
2023/05/29 06:31:07;;;;;;;11.27;3.33;;;15.60;99.90;;;;;;5096760;28;20231;-91
2023/05/29 06:33:34;;;;;;;8.53;2.67;;;15.50;99.90;;;;;;5095951;28;20250;-87
2023/05/29 06:36:03;;;;;;;10.18;2.50;;;15.20;99.90;;;;;;5089479;28;20205;-83
2023/05/29 06:38:29;;;;;;;9.55;2.38;;;15.30;99.90;;;;;;5075825;28;20248;-84
2023/05/29 06:40:56;;;;;;;7.07;2.08;;;15.30;99.90;;;;;;5085193;28;20194;-83
2023/05/29 06:43:23;;;;;;;6.80;2.65;;;15.60;99.90;;;;;;5090740;28;20221;-79
2023/05/29 06:45:50;;;;;;;8.23;2.70;;;15.70;99.90;;;;;;5096281;28;20875;-86
2023/05/29 06:48:17;;;;;;;7.18;2.40;;;15.80;99.90;;;;;;5079737;28;20205;-87
2023/05/29 06:50:44;;;;;;;8.65;2.40;;;16.00;99.90;;;;;;5076070;28;20565;-83
2023/05/29 06:53:12;;;;;;;12.77;2.90;;;16.10;99.90;;;;;;5076367;28;20198;-90
2023/05/29 06:55:40;;;;;;;5.85;1.98;;;15.90;99.90;;;;;;5075871;28;20604;-84
2023/05/29 06:58:07;;;;;;;10.88;2.75;;;15.90;99.90;;;;;;5093975;28;20209;-85
2023/05/29 07:00:34;;;;;;;10.75;2.33;;;16.00;99.90;;;;;;5095701;28;20200;-86
2023/05/29 07:03:00;;;;;;;12.50;2.22;;;16.20;99.90;;;;;;5096754;28;20221;-82
2023/05/29 07:05:28;;;;;;;8.43;2.10;;;16.00;99.90;;;;;;5096704;28;20191;-80
2023/05/29 07:07:54;;;;;;;8.45;2.17;;;15.80;99.90;;;;;;5096692;28;20196;-82
2023/05/29 07:10:23;;;;;;;8.70;2.40;;;15.60;99.90;;;;;;5076177;28;20221;-82
2023/05/29 07:12:49;;;;;;;8.10;2.40;;;15.50;99.90;;;;;;5076113;28;20577;-89
2023/05/29 07:15:16;;;;;;;7.13;2.40;;;15.30;99.90;;;;;;5076052;28;20212;-84
2023/05/29 07:17:43;;;;;;;10.27;2.50;;;15.20;99.90;;;;;;5076001;28;20228;-82
2023/05/29 07:20:11;;;;;;;8.38;2.58;;;15.00;99.90;;;;;;5076780;28;20326;-86
2023/05/29 07:22:38;;;;;;;10.73;2.50;;;14.80;99.90;;;;;;5075901;28;20217;-86
2023/05/29 07:25:05;;;;;;;18.52;3.28;;;14.80;99.90;;;;;;5075509;28;20201;-84
2023/05/29 07:27:35;;;;;;;7.23;2.50;;;14.90;99.90;;;;;;5075499;28;20221;-81
2023/05/29 07:30:02;;;;;;;13.35;2.92;;;14.80;99.90;;;;;;5074792;28;20224;-85
2023/05/29 07:32:29;;;;;;;7.20;2.30;;;14.80;99.90;;;;;;5075007;28;20198;-83
2023/05/29 07:34:56;;;;;;;7.20;2.40;;;14.90;99.90;;;;;;5076361;28;20201;-81
2023/05/29 07:37:23;;;;;;;12.03;3.33;;;15.00;99.90;;;;;;5095260;28;20593;-81
2023/05/29 07:39:50;;;;;;;11.17;2.60;;;14.90;99.90;;;;;;5095364;28;20246;-88
2023/05/29 07:42:16;;;;;;;10.40;2.40;;;14.90;99.90;;;;;;5094522;28;20664;-83
2023/05/29 07:44:45;;;;;;;11.60;2.70;;;14.90;99.90;;;;;;5089750;28;20321;-81
2023/05/29 07:47:12;;;;;;;8.27;2.53;;;14.90;99.90;;;;;;5075259;28;20208;-83
2023/05/29 07:49:39;;;;;;;9.03;2.60;;;14.90;99.90;;;;;;5075176;28;20495;-80
2023/05/29 07:52:06;;;;;;;8.90;2.37;;;14.80;99.90;;;;;;5075024;28;20266;-82
2023/05/29 07:54:34;;;;;;;12.37;3.13;;;14.60;99.90;;;;;;5073994;28;20228;-78
2023/05/29 07:57:02;;;;;;;7.73;2.43;;;14.60;99.90;;;;;;5073736;28;20204;-81
2023/05/29 07:59:29;;;;;;;11.77;2.80;;;14.60;99.90;;;;;;5073090;28;20192;-79
2023/05/29 08:01:58;;;;;;;8.90;2.43;;;14.90;99.90;;;;;;5073316;28;20197;-77
2023/05/29 08:04:25;;;;;;;10.53;2.50;;;15.10;99.90;;;;;;5073528;28;20229;-79
2023/05/29 08:06:52;;;;;;;8.05;1.80;;;15.60;99.90;;;;;;5073100;28;20190;-82
2023/05/29 08:09:19;;;;;;;10.20;2.70;;;16.10;99.90;;;;;;5073639;28;20193;-79
2023/05/29 08:11:46;;;;;;;9.10;2.13;;;16.50;99.90;;;;;;5073054;28;20204;-81
2023/05/29 08:14:13;;;;;;;10.73;2.83;;;16.80;99.90;;;;;;5072876;28;20598;-78
2023/05/29 08:16:40;;;;;;;8.00;2.45;;;17.00;99.90;;;;;;5074706;28;20555;-89
2023/05/29 08:19:08;;;;;;;10.15;2.75;;;17.10;99.90;;;;;;5073362;28;20193;-80
2023/05/29 08:21:35;;;;;;;4.72;2.17;;;17.00;99.90;;;;;;5080365;28;20236;-80
2023/05/29 08:24:04;;;;;;;10.43;2.55;;;16.80;99.90;;;;;;5092460;28;20312;-82
2023/05/29 08:26:31;;;;;;;10.48;2.38;;;16.70;99.90;;;;;;5092271;28;20262;-81
2023/05/29 08:28:58;;;;;;;9.35;2.90;;;16.30;99.90;;;;;;5086911;28;20288;-81
2023/05/29 08:31:25;;;;;;;7.88;2.90;;;16.20;99.90;;;;;;5080652;28;20288;-80
2023/05/29 08:33:52;;;;;;;10.55;2.65;;;16.30;99.90;;;;;;5072486;28;20197;-78
2023/05/29 08:36:21;;;;;;;10.55;2.83;;;16.80;99.90;;;;;;5087156;28;20830;-83
2023/05/29 08:38:48;;;;;;;9.30;2.20;;;17.00;99.90;;;;;;5085124;28;20255;-80
2023/05/29 08:41:22;;;;;;;9.00;2.30;;;17.20;99.90;;;;;;5084872;28;20580;-80
2023/05/29 08:43:51;;;;;;;9.88;2.45;;;17.20;99.90;;;;;;5093610;28;20493;-85
2023/05/29 08:46:20;;;;;;;6.15;2.15;;;17.40;99.90;;;;;;5093664;28;20196;-79
2023/05/29 08:48:50;;;;;;;6.90;2.35;;;17.40;99.90;;;;;;5092461;28;20205;-81
2023/05/29 08:51:29;;;;;;;11.07;3.00;;;17.70;99.90;;;;;;5085758;28;20196;-84
2023/05/29 08:53:57;;;;;;;12.25;3.00;;;17.50;99.90;;;;;;5093184;28;20192;-79
2023/05/29 08:56:24;;;;;;;6.57;2.60;;;17.50;99.90;;;;;;5080917;28;20205;-82
2023/05/29 08:58:52;;;;;;;11.40;2.70;;;17.50;99.90;;;;;;5072936;28;20201;-81
2023/05/29 09:01:20;;;;;;;10.07;3.45;;;17.50;99.90;;;;;;5084832;28;20261;-87
2023/05/29 09:03:48;;;;;;;8.88;2.50;;;17.30;99.90;;;;;;5092831;28;20255;-82
2023/05/29 09:06:14;;;;;;;8.88;2.63;;;17.40;99.90;;;;;;5092934;28;20246;-82
2023/05/29 09:08:43;;;;;;;9.32;2.75;;;17.60;99.90;;;;;;5074001;28;20237;-81
2023/05/29 09:11:10;;;;;;;7.65;2.38;;;17.60;99.90;;;;;;5083215;28;20518;-78
2023/05/29 09:13:37;;;;;;;11.52;3.28;;;17.50;99.90;;;;;;5089747;28;20209;-84
2023/05/29 09:16:06;;;;;;;12.55;2.50;;;17.70;99.90;;;;;;5092289;28;20300;-80
2023/05/29 09:18:33;;;;;;;7.35;2.33;;;17.70;99.90;;;;;;5092895;28;20273;-82
2023/05/29 09:21:00;;;;;;;8.68;2.35;;;17.80;99.90;;;;;;5093518;28;20239;-92
2023/05/29 09:23:27;;;;;;;7.30;2.70;;;17.80;99.90;;;;;;5074282;28;20228;-82
2023/05/29 09:25:55;;;;;;;8.80;2.53;;;17.90;99.90;;;;;;5072945;28;20226;-80
2023/05/29 09:28:26;;;;;;;11.23;2.85;;;17.90;99.90;;;;;;5072960;28;20225;-80
2023/05/29 09:30:53;;;;;;;9.65;2.95;;;18.00;99.90;;;;;;5071905;28;20205;-83
2023/05/29 09:33:20;;;;;;;9.02;2.63;;;18.00;99.90;;;;;;5072572;28;20193;-83
2023/05/29 09:35:48;;;;;;;8.13;2.28;;;18.00;99.90;;;;;;5072356;28;20608;-82
2023/05/29 09:38:16;;;;;;;10.13;2.42;;;18.30;99.90;;;;;;5084469;28;20200;-80
2023/05/29 09:40:45;;;;;;;10.57;3.42;;;18.60;99.90;;;;;;5093270;28;20482;-82
2023/05/29 09:43:16;;;;;;;12.50;3.17;;;18.60;99.90;;;;;;5094850;28;20643;-84
2023/05/29 09:45:45;;;;;;;8.50;2.58;;;18.60;99.90;;;;;;5094589;28;20258;-81
2023/05/29 09:48:15;;;;;;;11.57;2.65;;;18.50;99.90;;;;;;5096701;28;20202;-79
2023/05/29 09:50:44;;;;;;;9.70;2.70;;;18.60;99.90;;;;;;5095943;28;20276;-83
2023/05/29 09:53:20;;;;;;;12.00;3.38;;;18.60;99.90;;;;;;5094451;28;20188;-81
2023/05/29 09:55:47;;;;;;;8.27;2.65;;;18.40;99.90;;;;;;5092416;28;20584;-83
2023/05/29 09:58:16;;;;;;;6.85;2.78;;;18.40;99.90;;;;;;5085678;28;20565;-80
2023/05/29 10:00:44;;;;;;;11.25;3.15;;;18.40;99.90;;;;;;5075556;28;20212;-79
2023/05/29 10:03:12;;;;;;;15.75;3.55;;;18.30;99.90;;;;;;5075645;28;20640;-83
2023/05/29 10:05:39;;;;;;;10.57;3.10;;;18.40;99.90;;;;;;5075558;28;20239;-80
2023/05/29 10:08:09;;;;;;;15.65;3.60;;;18.60;99.90;;;;;;5075410;28;20319;-79
2023/05/29 10:10:38;;;;;;;15.88;3.42;;;18.90;99.90;;;;;;5077780;28;20585;-80
2023/05/29 10:13:07;;;;;;;11.23;3.80;;;19.00;99.90;;;;;;5103076;28;20192;-78
2023/05/29 10:15:36;;;;;;;9.82;3.08;;;19.10;99.90;;;;;;5093535;28;20212;-84
2023/05/29 10:18:07;;;;;;;17.27;4.03;;;19.00;99.90;;;;;;5077269;28;20512;-78
2023/05/29 10:20:36;;;;;;;13.05;3.63;;;18.70;99.90;;;;;;5085560;28;20228;-81
2023/05/29 10:23:05;;;;;;;13.88;3.33;;;18.70;99.90;;;;;;5105067;28;20249;-81
2023/05/29 10:25:35;;;;;;;11.57;3.42;;;18.90;99.90;;;;;;5096228;28;20296;-82
2023/05/29 10:28:03;;;;;;;14.60;3.47;;;19.10;99.90;;;;;;5105175;28;20636;-76
2023/05/29 10:30:40;;;;;;;14.82;4.00;;;19.10;99.90;;;;;;5077576;28;20565;-81
2023/05/29 10:33:22;;;;;;;17.15;4.05;;;19.10;99.90;;;;;;5079210;28;20215;-79
2023/05/29 10:35:54;;;;;;;12.32;3.58;;;18.90;99.90;;;;;;5091915;28;20192;-78
2023/05/29 10:38:21;;;;;;;9.98;3.35;;;19.30;99.90;;;;;;5116180;28;20211;-79
2023/05/29 10:40:48;;;;;;;16.33;3.70;;;19.30;99.90;;;;;;5101146;28;20205;-77
2023/05/29 10:43:34;;;;;;;13.63;4.05;;;19.20;99.90;;;;;;5095060;28;20496;-78
2023/05/29 10:46:03;;;;;;;10.23;3.30;;;19.20;99.90;;;;;;5090735;28;20601;-77
2023/05/29 10:48:41;;;;;;;10.48;3.00;;;19.30;99.90;;;;;;5094441;28;20197;-79
2023/05/29 10:51:10;;;;;;;15.45;3.63;;;19.20;99.90;;;;;;5092092;28;20291;-82
2023/05/29 10:53:40;;;;;;;16.23;3.85;;;19.30;99.90;;;;;;5094196;28;20213;-78
2023/05/29 10:56:15;;;;;;;11.07;3.45;;;19.50;99.90;;;;;;5096325;28;20481;-88
2023/05/29 10:58:42;;;;;;;12.20;3.67;;;19.70;99.90;;;;;;5094571;28;20200;-82
2023/05/29 11:01:10;;;;;;;14.98;4.20;;;19.60;99.90;;;;;;5090416;28;20227;-79
2023/05/29 11:03:37;;;;;;;9.65;3.65;;;19.70;99.90;;;;;;5101139;28;20227;-79
2023/05/29 11:06:07;;;;;;;12.30;3.63;;;19.90;99.90;;;;;;5090820;28;20295;-81
2023/05/29 11:08:35;;;;;;;11.45;3.85;;;20.10;99.90;;;;;;5098579;28;20204;-81
2023/05/29 11:11:03;;;;;;;12.93;4.10;;;20.20;99.90;;;;;;5094587;28;20196;-83
2023/05/29 11:13:35;;;;;;;10.43;3.08;;;20.10;99.90;;;;;;5094495;28;20215;-82
2023/05/29 11:16:07;;;;;;;10.65;3.88;;;20.10;99.90;;;;;;5089562;28;20197;-80
2023/05/29 11:18:41;;;;;;;9.80;3.53;;;19.80;99.90;;;;;;5094671;28;20754;-80
2023/05/29 11:21:27;;;;;;;12.70;3.75;;;19.70;99.90;;;;;;5090463;28;20252;-81
2023/05/29 11:23:54;;;;;;;10.43;3.05;;;19.90;99.90;;;;;;5092233;28;20216;-79
2023/05/29 11:26:27;;;;;;;12.32;3.40;;;19.80;99.90;;;;;;5092098;28;20224;-81
2023/05/29 11:28:58;;;;;;;10.35;3.20;;;19.60;99.90;;;;;;5093014;28;20539;-83
2023/05/29 11:31:27;;;;;;;13.88;3.40;;;19.50;99.90;;;;;;5091998;28;20201;-79
2023/05/29 11:33:59;;;;;;;12.38;3.15;;;19.50;99.90;;;;;;5079745;28;20665;-79
2023/05/29 11:36:27;;;;;;;12.45;3.58;;;19.50;99.90;;;;;;5087025;28;20228;-81
2023/05/29 11:38:54;;;;;;;8.57;2.90;;;19.60;99.90;;;;;;5092727;28;20196;-86
2023/05/29 11:41:21;;;;;;;12.52;3.80;;;19.20;99.90;;;;;;5091525;28;20529;-80
2023/05/29 11:43:58;;;;;;;12.70;3.80;;;19.20;99.90;;;;;;5093278;28;20220;-82
2023/05/29 11:46:26;;;;;;;10.02;2.78;;;19.20;99.90;;;;;;5087839;28;20205;-82
2023/05/29 11:48:54;;;;;;;8.75;3.28;;;18.90;99.90;;;;;;5092659;28;20208;-77
2023/05/29 11:51:21;;;;;;;13.95;3.50;;;18.90;99.90;;;;;;5093538;28;20197;-80
2023/05/29 11:53:49;;;;;;;11.02;3.50;;;19.00;99.90;;;;;;5093816;28;20193;-80
2023/05/29 11:56:16;;;;;;;14.15;3.58;;;19.20;99.90;;;;;;5076829;28;20212;-80
2023/05/29 11:58:44;;;;;;;11.95;3.00;;;19.00;99.90;;;;;;5075835;28;20285;-84
2023/05/29 12:01:11;;;;;;;16.92;4.00;;;18.80;99.90;;;;;;5094604;28;20197;-81
2023/05/29 12:03:41;;;;;;;8.45;3.22;;;18.70;99.90;;;;;;5094391;28;20331;-84
2023/05/29 12:06:11;;;;;;;10.98;3.67;;;18.80;99.90;;;;;;5093336;28;20193;-84
2023/05/29 12:08:38;;;;;;;13.13;3.47;;;18.90;99.90;;;;;;5083740;28;20205;-85
2023/05/29 12:11:06;;;;;;;10.20;3.50;;;18.90;99.90;;;;;;5073135;28;20280;-79
2023/05/29 12:13:33;;;;;;;14.60;3.47;;;18.90;99.90;;;;;;5073776;28;20594;-82
2023/05/29 12:16:05;;;;;;;12.07;3.67;;;18.90;99.90;;;;;;5074469;28;20215;-83
2023/05/29 12:18:32;;;;;;;7.47;3.00;;;18.80;99.90;;;;;;5074284;28;20194;-80
2023/05/29 12:21:00;;;;;;;13.35;3.90;;;19.00;99.90;;;;;;5075096;28;20224;-82
2023/05/29 12:23:29;;;;;;;9.18;2.70;;;19.10;99.90;;;;;;5095028;28;20284;-80
2023/05/29 12:25:56;;;;;;;12.75;2.92;;;18.90;99.90;;;;;;5088443;28;20225;-79
2023/05/29 12:28:23;;;;;;;9.82;3.40;;;19.10;99.90;;;;;;5073233;28;20197;-80
2023/05/29 12:30:51;;;;;;;8.80;3.15;;;19.20;99.90;;;;;;5073393;28;20326;-78
2023/05/29 12:33:31;;;;;;;8.05;2.92;;;19.00;99.90;;;;;;5072505;28;20594;-80
2023/05/29 12:36:06;;;;;;;11.55;3.75;;;19.10;99.90;;;;;;5072349;28;20225;-81
2023/05/29 12:38:36;;;;;;;11.15;3.83;;;19.30;99.90;;;;;;5072722;28;20204;-81
2023/05/29 12:41:03;;;;;;;13.45;3.85;;;19.40;99.90;;;;;;5071705;28;20616;-82
2023/05/29 12:43:30;;;;;;;12.85;3.40;;;19.40;99.90;;;;;;5072757;28;20251;-84
2023/05/29 12:45:57;;;;;;;7.40;2.70;;;19.20;99.90;;;;;;5072610;28;20800;-78
2023/05/29 12:48:28;;;;;;;11.68;3.83;;;19.20;99.90;;;;;;5071792;28;20674;-81
2023/05/29 12:50:55;;;;;;;11.35;3.75;;;19.10;99.90;;;;;;5072061;28;20189;-81